sensor_id;sensor_type;location;lat;lon;timestamp;P1;durP1;ratioP1;P2;durP2;ratioP2
62110;SDS011;48102;47.526;19.072;2023-08-30T03:40:44;8.07;;;5.95;;
62110;SDS011;48102;47.526;19.072;2023-08-30T03:43:48;6.75;;;5.35;;
62110;SDS011;48102;47.526;19.072;2023-08-30T03:46:50;7.78;;;5.12;;
62110;SDS011;48102;47.526;19.072;2023-08-30T03:49:54;8.85;;;6.07;;
62110;SDS011;48102;47.526;19.072;2023-08-30T03:52:56;7.60;;;5.07;;
62110;SDS011;48102;47.526;19.072;2023-08-30T03:55:59;6.68;;;5.45;;
62110;SDS011;48102;47.526;19.072;2023-08-30T03:59:02;8.52;;;5.32;;
62110;SDS011;48102;47.526;19.072;2023-08-30T04:02:05;10.73;;;5.75;;
62110;SDS011;48102;47.526;19.072;2023-08-30T04:05:08;5.65;;;4.45;;
62110;SDS011;48102;47.526;19.072;2023-08-30T04:08:12;10.63;;;4.85;;
62110;SDS011;48102;47.526;19.072;2023-08-30T04:11:17;9.13;;;5.07;;
62110;SDS011;48102;47.526;19.072;2023-08-30T04:14:20;9.00;;;5.05;;
62110;SDS011;48102;47.526;19.072;2023-08-30T04:17:25;6.00;;;5.28;;
62110;SDS011;48102;47.526;19.072;2023-08-30T04:20:28;6.32;;;4.75;;
62110;SDS011;48102;47.526;19.072;2023-08-30T04:23:31;6.93;;;5.00;;
62110;SDS011;48102;47.526;19.072;2023-08-30T04:26:34;7.90;;;4.95;;
62110;SDS011;48102;47.526;19.072;2023-08-30T04:32:39;7.62;;;4.50;;
62110;SDS011;48102;47.526;19.072;2023-08-30T04:38:47;6.80;;;4.40;;
62110;SDS011;48102;47.526;19.072;2023-08-30T04:42:04;7.28;;;4.12;;
62110;SDS011;48102;47.526;19.072;2023-08-30T04:45:07;5.07;;;4.37;;
62110;SDS011;48102;47.526;19.072;2023-08-30T04:48:12;9.27;;;4.80;;
62110;SDS011;48102;47.526;19.072;2023-08-30T04:51:15;5.25;;;4.72;;
62110;SDS011;48102;47.526;19.072;2023-08-30T04:54:18;6.30;;;4.97;;
62110;SDS011;48102;47.526;19.072;2023-08-30T04:57:21;6.62;;;4.70;;
62110;SDS011;48102;47.526;19.072;2023-08-30T05:00:24;7.00;;;4.70;;
62110;SDS011;48102;47.526;19.072;2023-08-30T05:06:33;8.02;;;5.25;;
62110;SDS011;48102;47.526;19.072;2023-08-30T05:09:36;7.30;;;4.50;;
62110;SDS011;48102;47.526;19.072;2023-08-30T05:12:39;9.02;;;4.53;;
62110;SDS011;48102;47.526;19.072;2023-08-30T05:15:41;6.87;;;4.75;;
62110;SDS011;48102;47.526;19.072;2023-08-30T05:18:44;6.10;;;4.85;;
62110;SDS011;48102;47.526;19.072;2023-08-30T05:21:47;10.20;;;5.05;;
62110;SDS011;48102;47.526;19.072;2023-08-30T05:24:54;5.10;;;3.80;;
62110;SDS011;48102;47.526;19.072;2023-08-30T05:27:56;7.93;;;4.65;;
62110;SDS011;48102;47.526;19.072;2023-08-30T05:30:59;9.02;;;4.87;;
62110;SDS011;48102;47.526;19.072;2023-08-30T05:34:04;7.50;;;4.90;;
62110;SDS011;48102;47.526;19.072;2023-08-30T05:37:15;7.03;;;4.00;;
62110;SDS011;48102;47.526;19.072;2023-08-30T05:40:18;5.37;;;4.20;;
62110;SDS011;48102;47.526;19.072;2023-08-30T05:46:26;8.23;;;5.62;;
62110;SDS011;48102;47.526;19.072;2023-08-30T05:49:29;5.68;;;4.70;;
62110;SDS011;48102;47.526;19.072;2023-08-30T05:52:32;6.43;;;4.55;;
62110;SDS011;48102;47.526;19.072;2023-08-30T05:55:35;6.18;;;5.00;;
62110;SDS011;48102;47.526;19.072;2023-08-30T05:58:40;9.32;;;4.80;;
62110;SDS011;48102;47.526;19.072;2023-08-30T06:01:43;6.93;;;5.07;;
62110;SDS011;48102;47.526;19.072;2023-08-30T06:04:46;5.47;;;4.32;;
62110;SDS011;48102;47.526;19.072;2023-08-30T06:07:49;7.25;;;5.37;;
62110;SDS011;48102;47.526;19.072;2023-08-30T06:13:54;6.35;;;4.47;;
62110;SDS011;48102;47.526;19.072;2023-08-30T06:16:58;4.82;;;4.22;;
62110;SDS011;48102;47.526;19.072;2023-08-30T06:20:00;5.20;;;4.40;;
62110;SDS011;48102;47.526;19.072;2023-08-30T06:23:03;6.40;;;4.68;;
62110;SDS011;48102;47.526;19.072;2023-08-30T06:26:07;5.12;;;4.50;;
62110;SDS011;48102;47.526;19.072;2023-08-30T06:29:10;7.03;;;4.12;;
62110;SDS011;48102;47.526;19.072;2023-08-30T06:32:13;5.50;;;4.07;;
62110;SDS011;48102;47.526;19.072;2023-08-30T06:35:17;7.95;;;4.22;;
62110;SDS011;48102;47.526;19.072;2023-08-30T06:38:20;5.05;;;4.28;;
62110;SDS011;48102;47.526;19.072;2023-08-30T06:41:24;7.07;;;3.95;;
62110;SDS011;48102;47.526;19.072;2023-08-30T06:44:28;6.40;;;3.83;;
62110;SDS011;48102;47.526;19.072;2023-08-30T06:47:36;4.62;;;3.75;;
62110;SDS011;48102;47.526;19.072;2023-08-30T06:50:39;4.80;;;3.95;;
62110;SDS011;48102;47.526;19.072;2023-08-30T06:53:43;5.50;;;3.87;;
62110;SDS011;48102;47.526;19.072;2023-08-30T06:56:58;4.00;;;3.60;;
62110;SDS011;48102;47.526;19.072;2023-08-30T07:00:06;5.45;;;3.92;;
62110;SDS011;48102;47.526;19.072;2023-08-30T07:03:12;6.50;;;4.22;;
62110;SDS011;48102;47.526;19.072;2023-08-30T07:06:16;5.80;;;3.72;;
62110;SDS011;48102;47.526;19.072;2023-08-30T07:09:19;4.45;;;3.37;;
62110;SDS011;48102;47.526;19.072;2023-08-30T07:12:28;5.20;;;4.00;;
62110;SDS011;48102;47.526;19.072;2023-08-30T07:15:30;5.07;;;4.03;;
62110;SDS011;48102;47.526;19.072;2023-08-30T07:18:36;4.32;;;3.53;;
62110;SDS011;48102;47.526;19.072;2023-08-30T07:24:42;7.90;;;4.07;;
62110;SDS011;48102;47.526;19.072;2023-08-30T07:27:47;3.85;;;3.37;;
62110;SDS011;48102;47.526;19.072;2023-08-30T07:30:50;6.22;;;4.60;;
62110;SDS011;48102;47.526;19.072;2023-08-30T07:33:53;9.13;;;4.87;;
62110;SDS011;48102;47.526;19.072;2023-08-30T07:36:58;6.20;;;4.35;;
62110;SDS011;48102;47.526;19.072;2023-08-30T07:40:02;5.47;;;4.68;;
62110;SDS011;48102;47.526;19.072;2023-08-30T07:43:11;6.00;;;3.85;;
62110;SDS011;48102;47.526;19.072;2023-08-30T07:46:14;8.85;;;3.75;;
62110;SDS011;48102;47.526;19.072;2023-08-30T07:49:18;4.80;;;3.95;;
62110;SDS011;48102;47.526;19.072;2023-08-30T07:52:22;5.43;;;3.78;;
62110;SDS011;48102;47.526;19.072;2023-08-30T07:55:50;4.18;;;3.67;;
62110;SDS011;48102;47.526;19.072;2023-08-30T07:58:53;3.87;;;2.95;;
62110;SDS011;48102;47.526;19.072;2023-08-30T08:01:57;4.78;;;3.75;;
62110;SDS011;48102;47.526;19.072;2023-08-30T08:05:00;4.93;;;3.90;;
62110;SDS011;48102;47.526;19.072;2023-08-30T08:11:06;5.25;;;3.97;;
62110;SDS011;48102;47.526;19.072;2023-08-30T08:14:11;5.25;;;3.85;;
62110;SDS011;48102;47.526;19.072;2023-08-30T08:17:15;7.28;;;4.32;;
62110;SDS011;48102;47.526;19.072;2023-08-30T08:20:18;8.52;;;4.15;;
62110;SDS011;48102;47.526;19.072;2023-08-30T08:23:21;10.75;;;4.45;;
62110;SDS011;48102;47.526;19.072;2023-08-30T08:26:23;9.32;;;3.58;;
62110;SDS011;48102;47.526;19.072;2023-08-30T08:29:27;5.05;;;3.78;;
62110;SDS011;48102;47.526;19.072;2023-08-30T08:32:31;5.45;;;4.20;;
62110;SDS011;48102;47.526;19.072;2023-08-30T08:35:34;7.62;;;3.87;;
62110;SDS011;48102;47.526;19.072;2023-08-30T08:38:36;4.82;;;3.65;;
62110;SDS011;48102;47.526;19.072;2023-08-30T08:41:41;4.10;;;3.65;;
62110;SDS011;48102;47.526;19.072;2023-08-30T08:44:54;4.30;;;3.90;;
62110;SDS011;48102;47.526;19.072;2023-08-30T08:48:02;4.35;;;3.58;;
62110;SDS011;48102;47.526;19.072;2023-08-30T08:51:10;4.37;;;3.45;;
62110;SDS011;48102;47.526;19.072;2023-08-30T08:54:13;5.07;;;3.42;;
62110;SDS011;48102;47.526;19.072;2023-08-30T08:57:16;4.53;;;3.50;;
62110;SDS011;48102;47.526;19.072;2023-08-30T09:00:19;4.25;;;3.45;;
62110;SDS011;48102;47.526;19.072;2023-08-30T09:03:22;13.45;;;4.00;;
62110;SDS011;48102;47.526;19.072;2023-08-30T09:06:26;6.10;;;4.32;;
62110;SDS011;48102;47.526;19.072;2023-08-30T09:09:30;7.28;;;3.70;;
62110;SDS011;48102;47.526;19.072;2023-08-30T09:12:34;4.47;;;3.58;;
62110;SDS011;48102;47.526;19.072;2023-08-30T09:15:37;4.78;;;3.25;;
62110;SDS011;48102;47.526;19.072;2023-08-30T09:18:41;4.00;;;3.60;;
62110;SDS011;48102;47.526;19.072;2023-08-30T09:21:58;9.15;;;3.85;;
62110;SDS011;48102;47.526;19.072;2023-08-30T09:28:05;3.95;;;3.05;;
62110;SDS011;48102;47.526;19.072;2023-08-30T09:31:16;5.80;;;3.35;;
62110;SDS011;48102;47.526;19.072;2023-08-30T09:34:24;4.05;;;3.28;;
62110;SDS011;48102;47.526;19.072;2023-08-30T09:37:28;5.15;;;3.33;;
62110;SDS011;48102;47.526;19.072;2023-08-30T09:43:33;7.55;;;3.60;;
62110;SDS011;48102;47.526;19.072;2023-08-30T09:46:43;4.35;;;3.17;;
62110;SDS011;48102;47.526;19.072;2023-08-30T09:49:54;4.15;;;3.05;;
62110;SDS011;48102;47.526;19.072;2023-08-30T09:52:58;5.80;;;3.33;;
62110;SDS011;48102;47.526;19.072;2023-08-30T09:56:01;4.50;;;2.97;;
62110;SDS011;48102;47.526;19.072;2023-08-30T09:59:05;5.50;;;2.90;;
62110;SDS011;48102;47.526;19.072;2023-08-30T10:02:08;4.53;;;3.00;;
62110;SDS011;48102;47.526;19.072;2023-08-30T10:05:12;4.70;;;3.17;;
62110;SDS011;48102;47.526;19.072;2023-08-30T10:08:16;4.55;;;2.83;;
62110;SDS011;48102;47.526;19.072;2023-08-30T10:11:20;3.75;;;2.65;;
62110;SDS011;48102;47.526;19.072;2023-08-30T10:14:23;6.75;;;2.67;;
62110;SDS011;48102;47.526;19.072;2023-08-30T10:17:27;8.40;;;2.60;;
62110;SDS011;48102;47.526;19.072;2023-08-30T10:20:36;3.08;;;2.40;;
62110;SDS011;48102;47.526;19.072;2023-08-30T10:23:43;4.15;;;3.00;;
62110;SDS011;48102;47.526;19.072;2023-08-30T10:26:47;3.30;;;2.55;;
62110;SDS011;48102;47.526;19.072;2023-08-30T10:29:51;4.65;;;2.87;;
62110;SDS011;48102;47.526;19.072;2023-08-30T10:32:54;5.00;;;3.10;;
62110;SDS011;48102;47.526;19.072;2023-08-30T10:36:07;3.60;;;2.80;;
62110;SDS011;48102;47.526;19.072;2023-08-30T10:39:13;6.47;;;2.80;;
62110;SDS011;48102;47.526;19.072;2023-08-30T10:42:21;3.28;;;2.25;;
62110;SDS011;48102;47.526;19.072;2023-08-30T10:45:24;4.95;;;2.40;;
62110;SDS011;48102;47.526;19.072;2023-08-30T10:48:37;3.78;;;2.72;;
62110;SDS011;48102;47.526;19.072;2023-08-30T10:51:41;2.80;;;2.17;;
62110;SDS011;48102;47.526;19.072;2023-08-30T10:54:44;3.00;;;2.17;;
62110;SDS011;48102;47.526;19.072;2023-08-30T10:57:57;4.07;;;2.45;;
62110;SDS011;48102;47.526;19.072;2023-08-30T11:01:01;3.87;;;2.15;;
62110;SDS011;48102;47.526;19.072;2023-08-30T11:04:05;5.00;;;2.10;;
62110;SDS011;48102;47.526;19.072;2023-08-30T11:07:16;2.60;;;2.12;;
62110;SDS011;48102;47.526;19.072;2023-08-30T11:10:21;3.90;;;2.15;;
62110;SDS011;48102;47.526;19.072;2023-08-30T11:13:24;4.60;;;1.87;;
62110;SDS011;48102;47.526;19.072;2023-08-30T11:16:27;2.92;;;1.90;;
62110;SDS011;48102;47.526;19.072;2023-08-30T11:19:30;2.58;;;2.00;;
62110;SDS011;48102;47.526;19.072;2023-08-30T11:22:37;3.70;;;2.00;;
62110;SDS011;48102;47.526;19.072;2023-08-30T11:25:42;4.22;;;1.85;;
62110;SDS011;48102;47.526;19.072;2023-08-30T11:28:45;2.75;;;1.70;;
62110;SDS011;48102;47.526;19.072;2023-08-30T11:31:50;1.42;;;1.27;;
62110;SDS011;48102;47.526;19.072;2023-08-30T11:34:56;2.40;;;1.67;;
62110;SDS011;48102;47.526;19.072;2023-08-30T11:38:02;3.08;;;1.30;;
62110;SDS011;48102;47.526;19.072;2023-08-30T11:41:06;2.03;;;1.52;;
62110;SDS011;48102;47.526;19.072;2023-08-30T11:44:09;1.42;;;1.15;;
62110;SDS011;48102;47.526;19.072;2023-08-30T11:47:17;2.12;;;1.23;;
62110;SDS011;48102;47.526;19.072;2023-08-30T11:50:25;1.83;;;1.27;;
62110;SDS011;48102;47.526;19.072;2023-08-30T11:53:34;2.85;;;1.65;;
62110;SDS011;48102;47.526;19.072;2023-08-30T11:56:38;4.28;;;1.60;;
62110;SDS011;48102;47.526;19.072;2023-08-30T11:59:41;3.53;;;1.50;;
62110;SDS011;48102;47.526;19.072;2023-08-30T12:02:46;1.92;;;1.48;;
62110;SDS011;48102;47.526;19.072;2023-08-30T12:05:50;3.78;;;2.20;;
62110;SDS011;48102;47.526;19.072;2023-08-30T12:08:57;3.40;;;1.73;;
62110;SDS011;48102;47.526;19.072;2023-08-30T12:12:05;1.67;;;1.45;;
62110;SDS011;48102;47.526;19.072;2023-08-30T12:15:12;1.90;;;1.60;;
62110;SDS011;48102;47.526;19.072;2023-08-30T12:18:20;3.12;;;1.90;;
62110;SDS011;48102;47.526;19.072;2023-08-30T12:21:24;1.77;;;1.60;;
62110;SDS011;48102;47.526;19.072;2023-08-30T12:24:27;2.70;;;1.70;;
62110;SDS011;48102;47.526;19.072;2023-08-30T12:27:29;2.08;;;1.60;;
62110;SDS011;48102;47.526;19.072;2023-08-30T12:30:32;2.12;;;1.60;;
62110;SDS011;48102;47.526;19.072;2023-08-30T12:33:35;2.20;;;1.60;;
62110;SDS011;48102;47.526;19.072;2023-08-30T12:36:39;1.98;;;1.73;;
62110;SDS011;48102;47.526;19.072;2023-08-30T12:39:42;3.00;;;2.08;;
62110;SDS011;48102;47.526;19.072;2023-08-30T12:42:45;2.83;;;1.50;;
62110;SDS011;48102;47.526;19.072;2023-08-30T12:45:48;2.25;;;1.62;;
62110;SDS011;48102;47.526;19.072;2023-08-30T12:48:52;2.15;;;1.50;;
62110;SDS011;48102;47.526;19.072;2023-08-30T12:51:55;3.92;;;1.50;;
62110;SDS011;48102;47.526;19.072;2023-08-30T12:54:58;3.47;;;1.62;;
62110;SDS011;48102;47.526;19.072;2023-08-30T12:58:01;1.73;;;1.40;;
62110;SDS011;48102;47.526;19.072;2023-08-30T13:01:05;4.12;;;1.48;;
62110;SDS011;48102;47.526;19.072;2023-08-30T13:04:07;1.85;;;1.23;;
62110;SDS011;48102;47.526;19.072;2023-08-30T13:07:10;2.50;;;1.77;;
62110;SDS011;48102;47.526;19.072;2023-08-30T13:10:13;2.40;;;1.50;;
62110;SDS011;48102;47.526;19.072;2023-08-30T13:13:16;3.80;;;1.50;;
62110;SDS011;48102;47.526;19.072;2023-08-30T13:16:19;3.40;;;1.33;;
62110;SDS011;48102;47.526;19.072;2023-08-30T13:19:22;1.62;;;1.10;;
62110;SDS011;48102;47.526;19.072;2023-08-30T13:22:25;1.77;;;1.60;;
62110;SDS011;48102;47.526;19.072;2023-08-30T13:25:28;1.60;;;1.25;;
62110;SDS011;48102;47.526;19.072;2023-08-30T13:28:31;1.85;;;1.55;;
62110;SDS011;48102;47.526;19.072;2023-08-30T13:31:34;1.55;;;1.20;;
62110;SDS011;48102;47.526;19.072;2023-08-30T13:34:37;5.18;;;1.50;;
62110;SDS011;48102;47.526;19.072;2023-08-30T13:37:41;1.27;;;1.17;;
62110;SDS011;48102;47.526;19.072;2023-08-30T13:40:44;2.10;;;1.40;;
62110;SDS011;48102;47.526;19.072;2023-08-30T13:43:47;1.12;;;1.02;;
62110;SDS011;48102;47.526;19.072;2023-08-30T13:46:50;1.50;;;1.33;;
62110;SDS011;48102;47.526;19.072;2023-08-30T13:49:53;1.20;;;1.10;;
62110;SDS011;48102;47.526;19.072;2023-08-30T13:52:56;1.40;;;1.23;;
62110;SDS011;48102;47.526;19.072;2023-08-30T13:56:01;1.70;;;1.33;;
62110;SDS011;48102;47.526;19.072;2023-08-30T13:59:04;1.20;;;1.10;;
62110;SDS011;48102;47.526;19.072;2023-08-30T14:02:10;2.35;;;1.25;;
62110;SDS011;48102;47.526;19.072;2023-08-30T14:05:12;3.72;;;1.20;;
62110;SDS011;48102;47.526;19.072;2023-08-30T14:08:15;1.30;;;1.20;;
62110;SDS011;48102;47.526;19.072;2023-08-30T14:11:18;1.58;;;1.20;;
62110;SDS011;48102;47.526;19.072;2023-08-30T14:14:21;1.10;;;1.00;;
62110;SDS011;48102;47.526;19.072;2023-08-30T14:17:24;3.75;;;1.42;;
62110;SDS011;48102;47.526;19.072;2023-08-30T14:20:27;1.55;;;1.15;;
62110;SDS011;48102;47.526;19.072;2023-08-30T14:23:30;3.60;;;1.10;;
62110;SDS011;48102;47.526;19.072;2023-08-30T14:26:33;3.05;;;1.15;;
62110;SDS011;48102;47.526;19.072;2023-08-30T14:29:36;1.33;;;1.20;;
62110;SDS011;48102;47.526;19.072;2023-08-30T14:32:38;1.65;;;1.08;;
62110;SDS011;48102;47.526;19.072;2023-08-30T14:35:42;0.95;;;0.93;;
62110;SDS011;48102;47.526;19.072;2023-08-30T14:38:45;1.80;;;1.23;;
62110;SDS011;48102;47.526;19.072;2023-08-30T14:41:48;1.70;;;1.30;;
62110;SDS011;48102;47.526;19.072;2023-08-30T14:44:51;1.77;;;1.20;;
62110;SDS011;48102;47.526;19.072;2023-08-30T14:47:54;1.42;;;1.10;;
62110;SDS011;48102;47.526;19.072;2023-08-30T14:51:01;1.77;;;1.20;;
62110;SDS011;48102;47.526;19.072;2023-08-30T14:54:07;2.17;;;1.30;;
62110;SDS011;48102;47.526;19.072;2023-08-30T14:57:09;2.55;;;1.50;;
62110;SDS011;48102;47.526;19.072;2023-08-30T15:00:13;4.57;;;1.50;;
62110;SDS011;48102;47.526;19.072;2023-08-30T15:03:16;2.33;;;1.10;;
62110;SDS011;48102;47.526;19.072;2023-08-30T15:06:19;1.77;;;1.20;;
62110;SDS011;48102;47.526;19.072;2023-08-30T15:09:22;4.40;;;1.40;;
62110;SDS011;48102;47.526;19.072;2023-08-30T15:12:25;4.80;;;1.30;;
62110;SDS011;48102;47.526;19.072;2023-08-30T15:15:28;2.20;;;1.02;;
62110;SDS011;48102;47.526;19.072;2023-08-30T15:18:33;1.10;;;0.90;;
62110;SDS011;48102;47.526;19.072;2023-08-30T15:21:35;1.50;;;0.70;;
62110;SDS011;48102;47.526;19.072;2023-08-30T15:24:39;2.35;;;0.80;;
62110;SDS011;48102;47.526;19.072;2023-08-30T15:27:41;1.02;;;0.80;;
